• Join FlightAware (Why Join?)
  • Login
  • US Flag 
02:35PM EDT


 

Airport Tracker/Info


-or-


 

Live Flight TrackerFlight Track Log ✈ CES219 ✈ 29-Jun-2013 ✈ ZSPD / PVG - EDDF / FRA

Flight Track Log - Related Links

Times and Time Zones

All times are in EDT time to prevent confusion due to time zone crossing. See the CES219 flight status page for this flight to view local times or setup timezone preferences in your user account.

Time Position Orientation Groundspeed Altitude Reporting Facility
EDT Latitude Longitude Course Direction KTS MPH feet Rate Location/Type
12:27PM 31.0260 121.5750 293° West 284 327 10,400  Level FlightAware
12:28PM 31.0650 121.4830 296° West 346 398 11,900 1,860 Climbing FlightAware
12:29PM 31.0930 121.4160 296° West 349 402 13,300 1,920 Climbing FlightAware
12:30PM 31.1480 121.3250 305° West 364 419 15,100 1,080 Climbing FlightAware
12:33PM 31.4031 121.0992 323° Northwest  Level Estimated
12:34PM 31.4993 121.0136 323° Northwest  Level Estimated
12:35PM 31.5954 120.9279 323° Northwest  Level Estimated
12:36PM 31.6915 120.8420 323° Northwest  Level Estimated
12:37PM 31.7875 120.7559 323° Northwest  Level Estimated
12:37PM 31.8830 120.8830 323° Northwest 440 506 22,600  Level FlightAware
12:38PM 31.9550 120.8440 335° Northwest 440 506 22,600  Level FlightAware
12:39PM 32.0180 120.8090 335° Northwest 440 506 22,600  Level FlightAware
12:41PM 32.2034 120.6416 323° Northwest  Level Estimated
12:42PM 32.2992 120.5548 323° Northwest  Level Estimated
12:43PM 32.3950 120.4678 323° Northwest  Level Estimated
12:44PM 32.4907 120.3806 322° Northwest  Level Estimated
12:45PM 32.5863 120.2932 322° Northwest  Level Estimated
12:46PM 32.6819 120.2056 322° Northwest  Level Estimated
12:47PM 32.7774 120.1178 322° Northwest  Level Estimated
12:48PM 32.8728 120.0299 322° Northwest  Level Estimated
12:49PM 32.9682 119.9417 322° Northwest  Level Estimated
12:50PM 33.0635 119.8534 322° Northwest  Level Estimated
12:51PM 33.1588 119.7649 322° Northwest  Level Estimated
12:52PM 33.2540 119.6762 322° Northwest  Level Estimated
12:53PM 33.3492 119.5873 322° Northwest  Level Estimated
12:54PM 33.4442 119.4982 322° Northwest  Level Estimated
12:55PM 33.5392 119.4089 322° Northwest  Level Estimated
12:56PM 33.6342 119.3194 322° Northwest  Level Estimated
12:57PM 33.7291 119.2297 322° Northwest  Level Estimated
12:58PM 33.8239 119.1398 322° Northwest  Level Estimated
12:59PM 33.9186 119.0497 322° Northwest  Level Estimated
01:00PM 34.0133 118.9594 322° Northwest  Level Estimated
01:01PM 34.1079 118.8689 322° Northwest  Level Estimated
01:02PM 34.2025 118.7782 322° Northwest  Level Estimated
01:03PM 34.2970 118.6873 322° Northwest  Level Estimated
01:04PM 34.3914 118.5962 321° Northwest  Level Estimated
01:05PM 34.4858 118.5049 321° Northwest  Level Estimated
01:06PM 34.5800 118.4134 321° Northwest  Level Estimated
01:07PM 34.6743 118.3216 321° Northwest  Level Estimated
01:08PM 34.7684 118.2297 321° Northwest  Level Estimated
01:09PM 34.8625 118.1376 321° Northwest  Level Estimated
01:10PM 34.9565 118.0452 321° Northwest  Level Estimated
01:11PM 35.0504 117.9526 321° Northwest  Level Estimated
01:12PM 35.1443 117.8598 321° Northwest  Level Estimated
01:13PM 35.2381 117.7669 321° Northwest  Level Estimated
01:14PM 35.3318 117.6737 321° Northwest  Level Estimated
01:15PM 35.4255 117.5802 321° Northwest  Level Estimated
01:16PM 35.5191 117.4866 321° Northwest  Level Estimated
01:17PM 35.6126 117.3927 321° Northwest  Level Estimated
01:18PM 35.7060 117.2986 321° Northwest  Level Estimated
01:19PM 35.7994 117.2043 321° Northwest  Level Estimated
01:20PM 35.8927 117.1098 321° Northwest  Level Estimated
01:21PM 35.9859 117.0151 321° Northwest  Level Estimated
01:22PM 36.0790 116.9201 321° Northwest  Level Estimated
01:23PM 36.1721 116.8249 320° Northwest  Level Estimated
01:24PM 36.2651 116.7295 320° Northwest  Level Estimated
01:25PM 36.3580 116.6338 320° Northwest  Level Estimated
01:26PM 36.4508 116.5379 320° Northwest  Level Estimated
01:27PM 36.5436 116.4418 320° Northwest  Level Estimated
01:28PM 36.6363 116.3455 320° Northwest  Level Estimated
01:29PM 36.7289 116.2489 320° Northwest  Level Estimated
01:30PM 36.8214 116.1521 320° Northwest  Level Estimated
01:31PM 36.9139 116.0551 320° Northwest  Level Estimated
01:32PM 37.0062 115.9578 320° Northwest  Level Estimated
01:33PM 37.0985 115.8603 320° Northwest  Level Estimated
01:34PM 37.1907 115.7626 320° Northwest  Level Estimated
01:35PM 37.2829 115.6646 320° Northwest  Level Estimated
01:36PM 37.3749 115.5663 320° Northwest  Level Estimated
01:37PM 37.4669 115.4679 320° Northwest  Level Estimated
01:38PM 37.5588 115.3692 320° Northwest  Level Estimated
01:39PM 37.6506 115.2702 320° Northwest  Level Estimated
01:40PM 37.7423 115.1710 319° Northwest  Level Estimated
01:41PM 37.8339 115.0715 319° Northwest  Level Estimated
01:42PM 37.9255 114.9719 319° Northwest  Level Estimated
01:43PM 38.0170 114.8719 319° Northwest  Level Estimated
01:44PM 38.1083 114.7717 319° Northwest  Level Estimated
01:45PM 38.1996 114.6713 319° Northwest  Level Estimated
01:46PM 38.2909 114.5706 319° Northwest  Level Estimated
01:47PM 38.3820 114.4697 319° Northwest  Level Estimated
01:48PM 38.4730 114.3684 319° Northwest  Level Estimated
01:49PM 38.5640 114.2670 319° Northwest  Level Estimated
01:50PM 38.6548 114.1653 319° Northwest  Level Estimated
01:51PM 38.7456 114.0633 319° Northwest  Level Estimated
01:52PM 38.8363 113.9611 319° Northwest  Level Estimated
01:53PM 38.9269 113.8586 319° Northwest  Level Estimated
01:54PM 39.0174 113.7558 319° Northwest  Level Estimated
01:55PM 39.1078 113.6528 319° Northwest  Level Estimated
01:56PM 39.1982 113.5495 318° Northwest  Level Estimated
01:57PM 39.2884 113.4460 318° Northwest  Level Estimated
01:58PM 39.3785 113.3422 318° Northwest  Level Estimated
01:59PM 39.4686 113.2381 318° Northwest  Level Estimated
02:00PM 39.5586 113.1337 318° Northwest  Level Estimated
02:01PM 39.6484 113.0291 318° Northwest  Level Estimated
02:02PM 39.7382 112.9242 318° Northwest  Level Estimated
02:03PM 39.8279 112.8190 318° Northwest  Level Estimated
02:04PM 39.9174 112.7136 318° Northwest  Level Estimated
02:05PM 40.0069 112.6079 318° Northwest  Level Estimated
02:06PM 40.0963 112.5019 318° Northwest  Level Estimated
02:07PM 40.1856 112.3956 318° Northwest  Level Estimated
02:08PM 40.2748 112.2890 318° Northwest  Level Estimated
02:09PM 40.3639 112.1822 318° Northwest  Level Estimated
02:10PM 40.4529 112.0751 318° Northwest  Level Estimated
02:11PM 40.5418 111.9677 317° Northwest  Level Estimated
02:12PM 40.6306 111.8600 317° Northwest  Level Estimated
02:13PM 40.7193 111.7520 317° Northwest  Level Estimated
02:14PM 40.8079 111.6437 317° Northwest  Level Estimated
02:15PM 40.8964 111.5352 317° Northwest  Level Estimated
02:16PM 40.9848 111.4263 317° Northwest  Level Estimated
02:17PM 41.0731 111.3172 317° Northwest  Level Estimated
02:18PM 41.1613 111.2077 317° Northwest  Level Estimated
02:19PM 41.2493 111.0980 317° Northwest  Level Estimated
02:20PM 41.3373 110.9880 317° Northwest  Level Estimated
02:21PM 41.4252 110.8777 317° Northwest  Level Estimated
02:22PM 41.5130 110.7671 317° Northwest  Level Estimated
02:23PM 41.6006 110.6561 317° Northwest  Level Estimated
02:24PM 41.6882 110.5449 317° Northwest  Level Estimated
02:25PM 41.7756 110.4334 316° Northwest  Level Estimated
02:26PM 41.8630 110.3216 316° Northwest  Level Estimated
02:27PM 41.9502 110.2094 316° Northwest  Level Estimated
02:28PM 42.0373 110.0970 316° Northwest  Level Estimated
02:29PM 42.1243 109.9843 316° Northwest  Level Estimated
02:30PM 42.2112 109.8712 316° Northwest  Level Estimated
02:31PM 42.2980 109.7578 316° Northwest  Level Estimated
02:32PM 42.3847 109.6441 316° Northwest  Level Estimated
02:33PM 42.4713 109.5301 316° Northwest  Level Estimated
02:34PM 42.5577 109.4158 316° Northwest  Level Estimated
02:35PM 42.6441 109.3012 316° Northwest  Level Estimated
02:36PM 42.7303 109.1862 316° Northwest  Level Estimated
02:37PM 42.8164 109.0710 316° Northwest  Level Estimated
02:38PM 42.9024 108.9554 315° West  Level Estimated
02:39PM 42.9883 108.8395 315° West  Level Estimated
02:40PM 43.0740 108.7232 315° West  Level Estimated
02:41PM 43.1597 108.6067 315° West  Level Estimated
02:42PM 43.2452 108.4898 315° West  Level Estimated
02:43PM 43.3306 108.3726 315° West  Level Estimated
02:44PM 43.4159 108.2550 315° West  Level Estimated
02:45PM 43.5010 108.1371 315° West  Level Estimated
02:46PM 43.5861 108.0189 315° West  Level Estimated
02:47PM 43.6710 107.9004 315° West  Level Estimated
02:48PM 43.7558 107.7815 315° West  Level Estimated
02:49PM 43.8405 107.6623 315° West  Level Estimated
02:50PM 43.9250 107.5427 314° West  Level Estimated
02:51PM 44.0094 107.4228 314° West  Level Estimated
02:52PM 44.0937 107.3026 314° West  Level Estimated
02:53PM 44.1779 107.1820 314° West  Level Estimated
02:54PM 44.2619 107.0611 314° West  Level Estimated
02:55PM 44.3459 106.9398 314° West  Level Estimated
02:56PM 44.4296 106.8182 314° West  Level Estimated
02:57PM 44.5133 106.6962 314° West  Level Estimated
02:58PM 44.5968 106.5739 314° West  Level Estimated
02:59PM 44.6802 106.4512 314° West  Level Estimated
03:00PM 44.7635 106.3282 314° West  Level Estimated
03:01PM 44.8466 106.2048 314° West  Level Estimated
03:02PM 44.9296 106.0811 313° West  Level Estimated
03:03PM 45.0125 105.9570 313° West  Level Estimated
03:04PM 45.0952 105.8326 313° West  Level Estimated
03:05PM 45.1778 105.7078 313° West  Level Estimated
03:06PM 45.2603 105.5826 313° West  Level Estimated
03:07PM 45.3426 105.4570 313° West  Level Estimated
03:08PM 45.4248 105.3311 313° West  Level Estimated
03:09PM 45.5068 105.2049 313° West  Level Estimated
03:10PM 45.5887 105.0782 313° West  Level Estimated
03:11PM 45.6705 104.9512 313° West  Level Estimated
03:12PM 45.7521 104.8239 313° West  Level Estimated
03:13PM 45.8336 104.6961 312° West  Level Estimated
03:14PM 45.9149 104.5680 312° West  Level Estimated
03:15PM 45.9961 104.4395 312° West  Level Estimated
03:16PM 46.0771 104.3106 312° West  Level Estimated
03:17PM 46.1581 104.1813 312° West  Level Estimated
03:18PM 46.2388 104.0517 312° West  Level Estimated
03:19PM 46.3194 103.9217 312° West  Level Estimated
03:20PM 46.3999 103.7913 312° West  Level Estimated
03:21PM 46.4802 103.6605 312° West  Level Estimated
03:22PM 46.5604 103.5293 312° West  Level Estimated
03:23PM 46.6404 103.3977 312° West  Level Estimated
03:24PM 46.7202 103.2658 311° West  Level Estimated
03:25PM 46.8000 103.1335 311° West  Level Estimated
03:26PM 46.8795 103.0007 311° West  Level Estimated
03:27PM 46.9589 102.8676 311° West  Level Estimated
03:28PM 47.0382 102.7341 311° West  Level Estimated
03:29PM 47.1173 102.6001 311° West  Level Estimated
03:30PM 47.1962 102.4658 311° West  Level Estimated
03:31PM 47.2750 102.3311 311° West  Level Estimated
03:32PM 47.3536 102.1960 311° West  Level Estimated
03:33PM 47.4321 102.0605 311° West  Level Estimated
03:34PM 47.5104 101.9245 310° West  Level Estimated
03:35PM 47.5885 101.7882 310° West  Level Estimated
03:36PM 47.6665 101.6515 310° West  Level Estimated
03:37PM 47.7443 101.5143 310° West  Level Estimated
03:38PM 47.8220 101.3767 310° West  Level Estimated
03:39PM 47.8995 101.2388 310° West  Level Estimated
03:40PM 47.9768 101.1004 310° West  Level Estimated
03:41PM 48.0539 100.9616 310° West  Level Estimated
03:42PM 48.1309 100.8224 310° West  Level Estimated
03:43PM 48.2077 100.6827 310° West  Level Estimated
03:44PM 48.2844 100.5427 309° West  Level Estimated
03:45PM 48.3609 100.4022 309° West  Level Estimated
03:46PM 48.4372 100.2613 309° West  Level Estimated
03:47PM 48.5133 100.1200 309° West  Level Estimated
03:48PM 48.5893 99.9783 309° West  Level Estimated
03:49PM 48.6651 99.8361 309° West  Level Estimated
03:50PM 48.7407 99.6935 309° West  Level Estimated
03:51PM 48.8161 99.5505 309° West  Level Estimated
03:52PM 48.8914 99.4070 309° West  Level Estimated
03:53PM 48.9665 99.2631 309° West  Level Estimated
03:54PM 49.0414 99.1188 308° West  Level Estimated
03:55PM 49.1161 98.9740 308° West  Level Estimated
03:56PM 49.1906 98.8288 308° West  Level Estimated
03:57PM 49.2650 98.6832 308° West  Level Estimated
03:58PM 49.3392 98.5371 308° West  Level Estimated
03:59PM 49.4132 98.3906 308° West  Level Estimated
04:00PM 49.4869 98.2437 308° West  Level Estimated
04:01PM 49.5606 98.0963 308° West  Level Estimated
04:02PM 49.6340 97.9484 308° West  Level Estimated
04:03PM 49.7072 97.8001 307° West  Level Estimated
04:04PM 49.7803 97.6514 307° West  Level Estimated
04:05PM 49.8531 97.5022 307° West  Level Estimated
04:06PM 49.9258 97.3526 307° West  Level Estimated
04:07PM 49.9983 97.2025 307° West  Level Estimated
04:08PM 50.0706 97.0520 307° West  Level Estimated
04:09PM 50.1427 96.9010 307° West  Level Estimated
04:10PM 50.2145 96.7496 307° West  Level Estimated
04:11PM 50.2862 96.5977 306° West  Level Estimated
04:12PM 50.3577 96.4453 306° West  Level Estimated
04:13PM 50.4290 96.2925 306° West  Level Estimated
04:14PM 50.5001 96.1392 306° West  Level Estimated
04:15PM 50.5710 95.9855 306° West  Level Estimated
04:16PM 50.6417 95.8313 306° West  Level Estimated
04:17PM 50.7122 95.6766 306° West  Level Estimated
04:18PM 50.7824 95.5215 306° West  Level Estimated
04:19PM 50.8525 95.3659 306° West  Level Estimated
04:20PM 50.9224 95.2098 305° West  Level Estimated
04:21PM 50.9920 95.0533 305° West  Level Estimated
04:22PM 51.0615 94.8963 305° West  Level Estimated
04:23PM 51.1307 94.7388 305° West  Level Estimated
04:24PM 51.1997 94.5808 305° West  Level Estimated
04:25PM 51.2685 94.4224 305° West  Level Estimated
04:26PM 51.3371 94.2635 305° West  Level Estimated
04:27PM 51.4055 94.1042 305° West  Level Estimated
04:28PM 51.4737 93.9443 304° West  Level Estimated
04:29PM 51.5416 93.7840 304° West  Level Estimated
04:30PM 51.6093 93.6232 304° West  Level Estimated
04:31PM 51.6768 93.4619 304° West  Level Estimated
04:32PM 51.7441 93.3002 304° West  Level Estimated
04:33PM 51.8111 93.1379 304° West  Level Estimated
04:34PM 51.8780 92.9752 304° West  Level Estimated
04:35PM 51.9446 92.8120 304° West  Level Estimated
04:36PM 52.0110 92.6483 303° West  Level Estimated
04:37PM 52.0771 92.4841 303° West  Level Estimated
04:38PM 52.1431 92.3194 303° West  Level Estimated
04:39PM 52.2088 92.1543 303° West  Level Estimated
04:40PM 52.2742 91.9886 303° West  Level Estimated
04:41PM 52.3395 91.8225 303° West  Level Estimated
04:42PM 52.4045 91.6559 303° West  Level Estimated
04:43PM 52.4692 91.4888 303° West  Level Estimated
04:44PM 52.5338 91.3212 302° West  Level Estimated
04:45PM 52.5981 91.1531 302° West  Level Estimated
04:46PM 52.6621 90.9845 302° West  Level Estimated
04:47PM 52.7259 90.8154 302° West  Level Estimated
04:48PM 52.7895 90.6458 302° West  Level Estimated
04:49PM 52.8528 90.4757 302° West  Level Estimated
04:50PM 52.9159 90.3052 302° West  Level Estimated
04:51PM 52.9787 90.1341 301° West  Level Estimated
04:52PM 53.0413 89.9625 301° West  Level Estimated
04:53PM 53.1037 89.7905 301° West  Level Estimated
04:54PM 53.1658 89.6179 301° West  Level Estimated
04:55PM 53.2276 89.4449 301° West  Level Estimated
04:56PM 53.2892 89.2713 301° West  Level Estimated
04:57PM 53.3506 89.0972 301° West  Level Estimated
04:58PM 53.4117 88.9227 300° West  Level Estimated
04:59PM 53.4725 88.7476 300° West  Level Estimated
05:00PM 53.5331 88.5721 300° West  Level Estimated
05:01PM 53.5934 88.3960 300° West  Level Estimated
05:02PM 53.6535 88.2194 300° West  Level Estimated
05:03PM 53.7133 88.0424 300° West  Level Estimated
05:04PM 53.7728 87.8648 300° West  Level Estimated
05:05PM 53.8321 87.6867 299° West  Level Estimated
05:06PM 53.8911 87.5081 299° West  Level Estimated
05:07PM 53.9498 87.3290 299° West  Level Estimated
05:08PM 54.0083 87.1495 299° West  Level Estimated
05:09PM 54.0665 86.9694 299° West  Level Estimated
05:10PM 54.1245 86.7888 299° West  Level Estimated
05:11PM 54.1821 86.6077 299° West  Level Estimated
05:12PM 54.2395 86.4260 298° West  Level Estimated
05:12PM 53.2650 88.8980 298° West 435 501 38,000  Level FlightAware
05:13PM 54.2967 86.2439 298° West  Level Estimated
05:13PM 53.2930 88.7990 295° West 437 503 38,000  Level FlightAware
05:14PM 53.3350 88.6490 295° West 440 506 38,000  Level FlightAware
05:14PM 53.3680 88.5320 295° West 437 503 38,000  Level FlightAware
05:16PM 53.4450 88.2520 295° West 432 497 38,000  Level FlightAware
05:17PM 53.4890 88.0890 294° West 432 497 38,000  Level FlightAware
05:17PM 53.5190 87.9800 295° West 431 496 38,000  Level FlightAware
05:18PM 53.5560 87.8450 295° West 432 497 38,000  Level FlightAware
05:19PM 53.5880 87.7260 294° West 433 498 38,000  Level FlightAware
05:19PM 53.6250 87.5850 294° West 433 498 38,000  Level FlightAware
05:20PM 53.6620 87.4460 294° West 429 494 38,000  Level FlightAware
05:21PM 53.6940 87.3270 294° West 427 491 38,000  Level FlightAware
05:22PM 53.7260 87.2060 294° West 430 495 38,000  Level FlightAware
05:22PM 53.7620 87.0660 294° West 440 506 38,000  Level FlightAware
05:23PM 53.7910 86.9540 294° West 447 514 38,000  Level FlightAware
05:24PM 53.8330 86.8150 297° West 446 513 38,000  Level FlightAware
05:24PM 53.8780 86.6830 300° West 448 516 38,000  Level FlightAware
05:25PM 53.9190 86.5610 300° West 446 513 38,000  Level FlightAware
05:26PM 53.9610 86.4380 300° West 446 513 38,000  Level FlightAware
05:26PM 54.0020 86.3180 300° West 446 513 38,000  Level FlightAware
05:27PM 54.0470 86.1820 299° West 450 518 38,000  Level FlightAware
05:28PM 54.0930 86.0450 300° West 450 518 38,000  Level FlightAware
05:28PM 54.1300 85.9350 300° West 450 518 38,000  Level FlightAware
05:29PM 54.1800 85.7820 299° West 450 518 38,000  Level FlightAware
05:32PM 54.3041 85.3802 298° West  Level Estimated
05:33PM 54.3601 85.1967 298° West  Level Estimated
05:34PM 54.4158 85.0128 298° West  Level Estimated
05:34PM 54.4650 84.9030 298° West 444 511 38,000  Level FlightAware
05:35PM 54.5090 84.7630 298° West 445 512 38,000  Level FlightAware
05:36PM 54.5530 84.6250 299° West 448 516 38,000  Level FlightAware
05:36PM 54.6070 84.4510 298° West 451 519 38,000  Level FlightAware
05:37PM 54.6610 84.2770 298° West 451 519 38,000  Level FlightAware
05:38PM 54.7000 84.1510 298° West 450 518 38,000  Level FlightAware
05:39PM 54.7440 84.0110 299° West 448 516 38,000  Level FlightAware
05:39PM 54.7820 83.8850 298° West 450 518 38,000  Level FlightAware
05:40PM 54.8350 83.7100 298° West 453 521 38,000  Level FlightAware
05:41PM 54.8740 83.5820 298° West 454 522 38,000  Level FlightAware
05:42PM 54.9180 83.4340 297° West 456 525 38,000  Level FlightAware
05:43PM 54.9620 83.2880 298° West 457 526 38,000  Level FlightAware
05:43PM 55.0000 83.1590 297° West 459 528 38,000  Level FlightAware
05:44PM 55.0430 83.0110 297° West 460 529 38,000  Level FlightAware
05:47PM 55.1748 82.5285 296° West  Level Estimated
05:48PM 55.2262 82.3372 295° West  Level Estimated
05:49PM 55.2774 82.1453 295° West  Level Estimated
05:50PM 55.3283 81.9530 295° West  Level Estimated
05:50PM 55.5110 82.0400 295° West 476 548 38,000  Level FlightAware
05:50PM 55.5830 81.9230 317° Northwest 477 549 38,000  Level FlightAware
05:51PM 55.6550 81.8070 318° Northwest 476 548 38,000  Level FlightAware
05:52PM 55.7290 81.6880 318° Northwest 477 549 38,000  Level FlightAware
05:53PM 55.7940 81.5810 317° Northwest 476 548 38,000  Level FlightAware
05:53PM 55.8580 81.4760 317° Northwest 474 545 38,000  Level FlightAware
05:54PM 55.9290 81.3600 318° Northwest 476 548 38,000  Level FlightAware
05:55PM 55.9930 81.2520 317° Northwest 476 548 38,000  Level FlightAware
05:56PM 56.1310 81.0230 317° Northwest 479 551 38,000  Level FlightAware
05:57PM 56.2030 80.9010 317° Northwest 480 552 38,000  Level FlightAware
05:57PM 56.2590 80.8050 316° Northwest 481 554 38,000  Level FlightAware
05:58PM 56.3260 80.6910 317° Northwest 480 552 38,000  Level FlightAware
06:01PM 56.4372 80.2157 293° West  Level Estimated
06:02PM 56.4837 80.0140 293° West  Level Estimated
06:03PM 56.5298 79.8119 293° West  Level Estimated
06:04PM 56.5756 79.6092 292° West  Level Estimated
06:04PM 56.8450 79.7940 292° West 485 558 38,000  Level FlightAware
06:04PM 56.9230 79.6560 316° Northwest 487 560 38,000  Level FlightAware
06:05PM 56.9820 79.5510 316° Northwest 487 560 38,000  Level FlightAware
06:06PM 57.0510 79.4270 316° Northwest 487 560 38,000  Level FlightAware
06:07PM 57.1880 79.1800 316° Northwest 487 560 38,000  Level FlightAware
06:08PM 57.2760 79.0210 316° Northwest 486 559 38,000  Level FlightAware
06:09PM 57.3490 78.8880 316° Northwest 485 558 38,000  Level FlightAware
06:09PM 57.4130 78.7700 315° West 485 558 38,000  Level FlightAware
06:10PM 57.4770 78.6540 316° Northwest 487 560 38,000  Level FlightAware
06:11PM 57.5480 78.5230 315° West 487 560 38,000  Level FlightAware
06:12PM 57.6200 78.3900 315° West 486 559 38,000  Level FlightAware
06:12PM 57.6840 78.2700 315° West 487 560 38,000  Level FlightAware
06:13PM 57.7470 78.1520 315° West 486 559 38,000  Level FlightAware
06:14PM 57.8080 78.0370 315° West 486 559 38,000  Level FlightAware
06:14PM 57.8800 77.9010 315° West 486 559 38,000  Level FlightAware
06:17PM 57.9688 77.4296 290° West  Level Estimated
06:18PM 58.0086 77.2146 289° West  Level Estimated
06:19PM 58.0480 76.9991 289° West  Level Estimated
06:19PM 58.1900 77.2930 289° West 487 560 38,000  Level FlightAware
06:21PM 58.2640 76.8807 289° West  Level Estimated
06:22PM 58.3024 76.6630 289° West  Level Estimated
06:23PM 58.3404 76.4448 288° West  Level Estimated
06:24PM 58.3781 76.2262 288° West  Level Estimated
06:25PM 58.4154 76.0070 288° West  Level Estimated
06:26PM 58.4523 75.7875 288° West  Level Estimated
06:27PM 58.4888 75.5675 288° West  Level Estimated
06:28PM 58.5250 75.3470 288° West  Level Estimated
06:29PM 58.5607 75.1260 287° West  Level Estimated
06:30PM 58.5961 74.9046 287° West  Level Estimated
06:30PM 59.2320 74.7830 287° West 488 562 38,000  Level FlightAware
06:31PM 58.6312 74.6828 287° West  Level Estimated
06:31PM 59.3190 74.5390 305° West 490 564 38,000  Level FlightAware
06:32PM 59.3670 74.3600 298° West 493 567 38,000  Level FlightAware
06:33PM 59.4010 74.2100 294° West 493 567 38,000  Level FlightAware
06:33PM 59.4460 74.0140 294° West 495 570 38,000  Level FlightAware
06:34PM 59.4870 73.8370 295° West 496 571 38,000  Level FlightAware
06:35PM 59.5200 73.6910 294° West 496 571 38,000  Level FlightAware
06:35PM 59.5630 73.4990 294° West 496 571 38,000  Level FlightAware
06:36PM 59.5980 73.3400 294° West 498 573 38,000  Level FlightAware
06:38PM 59.7040 72.8570 294° West 499 574 38,000  Level FlightAware
06:39PM 59.7440 72.6720 293° West 499 574 38,000  Level FlightAware
06:39PM 59.7810 72.5010 293° West 499 574 38,000  Level FlightAware
06:41PM 59.8390 72.2270 293° West 498 573 38,000  Level FlightAware
06:41PM 59.8780 72.0400 293° West 498 573 38,000  Level FlightAware
06:42PM 59.9170 71.8500 292° West 497 572 38,000  Level FlightAware
06:42PM 59.9390 71.7480 293° West 497 572 38,000  Level FlightAware
06:44PM 60.0130 71.3830 292° West 496 571 38,000  Level FlightAware
06:47PM 60.0820 70.7573 283° West  Level Estimated
06:48PM 60.1072 70.5205 282° West  Level Estimated
06:49PM 60.1320 70.2834 282° West  Level Estimated
06:49PM 60.2550 70.1460 282° West 497 572 38,000  Level FlightAware
06:50PM 60.2950 69.9350 291° West 497 572 38,000  Level FlightAware
06:50PM 60.3400 69.6910 291° West 497 572 38,000  Level FlightAware
06:51PM 60.3880 69.4290 290° West 499 574 38,000  Level FlightAware
06:52PM 60.4190 69.2570 290° West 500 575 38,000  Level FlightAware
06:53PM 60.4480 69.1000 291° West 499 574 38,000  Level FlightAware
06:54PM 60.4860 68.8900 290° West 498 573 38,000  Level FlightAware
06:54PM 60.5180 68.7090 290° West 499 574 38,000  Level FlightAware
06:55PM 60.5450 68.5530 289° West 499 574 38,000 60 Level FlightAware
06:56PM 60.5820 68.3430 290° West 499 574 38,100  Climbing FlightAware
06:56PM 60.6130 68.1610 289° West 499 574 38,000 -120 Descending FlightAware
06:57PM 60.6430 67.9870 289° West 498 573 38,000  Level FlightAware
06:58PM 60.6720 67.8120 289° West 500 575 38,000  Level FlightAware
06:58PM 60.7030 67.6290 289° West 501 577 38,000  Level FlightAware
06:59PM 60.7400 67.4040 289° West 502 578 38,000  Level FlightAware
07:02PM 60.7828 66.8174 279° West  Level Estimated
07:02PM 60.8400 66.7800 279° West 501 577 38,000  Level FlightAware
07:02PM 60.8820 66.5120 288° West 501 577 38,000  Level FlightAware
07:03PM 60.9060 66.3540 287° West 501 577 38,000  Level FlightAware
07:04PM 60.9670 65.9560 288° West 501 577 38,000  Level FlightAware
07:06PM 61.0170 65.6200 287° West 502 578 38,000  Level FlightAware
07:06PM 61.0440 65.4380 287° West 504 580 38,000  Level FlightAware
07:07PM 61.0650 65.2970 287° West 504 580 38,000  Level FlightAware
07:08PM 61.0930 65.1050 287° West 504 580 38,000  Level FlightAware
07:08PM 61.1140 64.9640 287° West 504 580 38,000  Level FlightAware
07:09PM 61.1410 64.7800 287° West 504 580 38,000  Level FlightAware
07:10PM 61.1830 64.4560 285° West 502 578 38,000  Level FlightAware
07:11PM 61.2310 64.0960 286° West 501 577 38,000  Level FlightAware
07:12PM 61.2540 63.9140 285° West 501 577 38,000  Level FlightAware
07:13PM 61.2730 63.7670 285° West 501 577 38,000  Level FlightAware
07:14PM 61.2980 63.5730 285° West 501 577 38,000  Level FlightAware
07:14PM 61.3180 63.4190 285° West 501 577 38,000  Level FlightAware
07:15PM 61.3370 63.2680 285° West 501 577 38,000  Level FlightAware
07:16PM 61.3620 63.0770 285° West 501 577 38,000  Level FlightAware
07:16PM 61.3800 62.9340 285° West 501 577 38,000  Level FlightAware
07:17PM 61.4050 62.7390 285° West 501 577 38,000  Level FlightAware
07:18PM 61.4230 62.5960 285° West 501 577 38,000  Level FlightAware
07:19PM 61.4480 62.4050 285° West 501 577 38,000  Level FlightAware
07:19PM 61.4660 62.2620 285° West 501 577 38,000  Level FlightAware
07:20PM 61.4910 62.0710 285° West 501 577 38,000  Level FlightAware
07:23PM 61.5074 61.4268 273° West  Level Estimated
07:24PM 61.5131 61.1740 273° West  Level Estimated
07:25PM 61.5182 60.9211 273° West  Level Estimated
07:26PM 61.5229 60.6681 272° West  Level Estimated
07:27PM 61.5271 60.4150 272° West  Level Estimated
07:28PM 61.5308 60.1619 272° West  Level Estimated
07:29PM 61.5341 59.9087 272° West  Level Estimated
07:29PM 61.6000 59.1500 272° West 512 589 38,000  Level FlightAware
07:29PM 61.6110 58.9390 276° West 511 588 38,000  Level FlightAware
07:32PM 61.6120 58.3635 270° West  Level Estimated
07:33PM 61.6117 58.1096 270° West  Level Estimated
07:34PM 61.6110 57.8557 270° West  Level Estimated
07:35PM 61.6097 57.6018 270° West  Level Estimated
07:36PM 61.6080 57.3479 269° West  Level Estimated
07:37PM 61.6058 57.0941 269° West  Level Estimated
07:37PM 61.7050 56.7440 269° West 501 577 38,000  Level FlightAware
07:38PM 61.6031 56.8403 269° West  Level Estimated
07:39PM 61.7190 56.3330 268° West 501 577 38,000  Level FlightAware
07:40PM 61.6969 56.2223 268° West  Level Estimated
07:42PM 61.7073 55.7221 268° West  Level Estimated
07:43PM 61.7016 55.4677 267° West  Level Estimated
07:44PM 61.6955 55.2134 267° West  Level Estimated
07:44PM 61.7610 55.0510 267° West 501 577 38,000  Level FlightAware
07:45PM 61.7110 54.3470 262° West 502 578 38,000  Level FlightAware
07:46PM 61.7090 54.0520 269° West 499 574 38,000  Level FlightAware
07:47PM 61.7070 53.8130 269° West 498 573 38,000  Level FlightAware
07:47PM 61.7050 53.6020 269° West 497 572 38,000  Level FlightAware
07:48PM 61.7020 53.3970 268° West 497 572 38,000  Level FlightAware
07:49PM 61.7000 53.1820 269° West 498 573 38,000  Level FlightAware
07:49PM 61.6970 52.9960 268° West 498 573 38,000  Level FlightAware
07:51PM 61.6900 52.6110 268° West 499 574 38,000  Level FlightAware
07:52PM 61.6860 52.3710 268° West 499 574 38,000  Level FlightAware
07:52PM 61.6820 52.1870 267° West 499 574 38,000  Level FlightAware
07:53PM 61.6770 51.9500 268° West 500 575 38,000  Level FlightAware
07:53PM 61.6750 51.8600 267° West 500 575 38,000  Level FlightAware
07:54PM 61.6690 51.6250 267° West 500 575 38,000  Level FlightAware
07:55PM 61.6600 51.2860 267° West 499 574 38,000  Level FlightAware
07:56PM 61.6530 51.0490 267° West 496 571 38,000  Level FlightAware
07:57PM 61.6460 50.8440 266° West 496 571 38,000  Level FlightAware
07:58PM 61.6190 50.5110 260° West 497 572 38,000  Level FlightAware
07:59PM 61.6070 50.3650 260° West 497 572 38,000  Level FlightAware
08:02PM 61.5639 49.7074 262° West  Level Estimated
08:02PM 61.5430 49.6050 262° West 497 572 38,000  Level FlightAware
08:03PM 61.5290 49.4400 260° West 497 572 38,000  Level FlightAware
08:03PM 61.5170 49.2940 260° West 497 572 38,000  Level FlightAware
08:04PM 61.5000 49.1010 260° West 497 572 38,000  Level FlightAware
08:05PM 61.4880 48.9560 260° West 497 572 38,000  Level FlightAware
08:05PM 61.4740 48.7940 260° West 497 572 38,000  Level FlightAware
08:06PM 61.4580 48.6010 260° West 497 572 38,000  Level FlightAware
08:07PM 61.4460 48.4560 260° West 497 572 38,000  Level FlightAware
08:08PM 61.4290 48.2630 260° West 497 572 38,000  Level FlightAware
08:10PM 61.3903 47.7820 261° West  Level Estimated
08:11PM 61.3696 47.5337 260° West  Level Estimated
08:12PM 61.3485 47.2858 260° West  Level Estimated
08:13PM 61.3269 47.0381 260° West  Level Estimated
08:14PM 61.3049 46.7908 260° West  Level Estimated
08:15PM 61.2824 46.5439 259° West  Level Estimated
08:16PM 61.2595 46.2973 259° West  Level Estimated
08:17PM 61.2361 46.0511 259° West  Level Estimated
08:18PM 61.2123 45.8052 259° West  Level Estimated
08:19PM 61.1880 45.5598 259° West  Level Estimated
08:20PM 61.1633 45.3147 258° West  Level Estimated
08:21PM 61.1381 45.0700 258° West  Level Estimated
08:22PM 61.1125 44.8257 258° West  Level Estimated
08:23PM 61.0865 44.5818 258° West  Level Estimated
08:24PM 61.0601 44.3382 257° West  Level Estimated
08:25PM 61.0331 44.0951 257° West  Level Estimated
08:26PM 61.0058 43.8525 257° West  Level Estimated
08:27PM 60.9780 43.6102 257° West  Level Estimated
08:27PM 60.7920 42.7740 257° West 478 550 38,000  Level FlightAware
08:28PM 60.7630 42.5480 255° West 476 548 38,000  Level FlightAware
08:28PM 60.7370 42.3440 255° West 476 548 38,000  Level FlightAware
08:29PM 60.7120 42.1560 255° West 477 549 38,000  Level FlightAware
08:30PM 60.6870 41.9680 255° West 479 551 38,000  Level FlightAware
08:31PM 60.6580 41.7500 255° West 477 549 38,000  Level FlightAware
08:31PM 60.6330 41.5730 254° West 476 548 38,000  Level FlightAware
08:32PM 60.6060 41.3770 254° West 477 549 38,000  Level FlightAware
08:33PM 60.5760 41.1360 256° West 476 548 38,000  Level FlightAware
08:34PM 60.5680 40.9830 264° West 475 547 38,000  Level FlightAware
08:34PM 60.5600 40.7680 266° West 477 549 38,000  Level FlightAware
08:35PM 60.5470 40.5610 263° West 478 550 38,000  Level FlightAware
08:36PM 60.5390 40.4170 264° West 478 550 38,000  Level FlightAware
08:36PM 60.5280 40.2210 264° West 481 554 38,000  Level FlightAware
08:37PM 60.5180 40.0630 263° West 482 555 38,000  Level FlightAware
08:38PM 60.5020 39.7950 263° West 484 557 38,000  Level FlightAware
08:39PM 60.4900 39.6110 263° West 484 557 38,000  Level FlightAware
08:39PM 60.4780 39.4230 263° West 484 557 38,000  Level FlightAware
08:41PM 60.4550 39.0860 262° West 480 552 38,000  Level FlightAware
08:41PM 60.4420 38.8890 262° West 480 552 38,000  Level FlightAware
08:42PM 60.4280 38.7100 261° West 479 551 38,000  Level FlightAware
08:43PM 60.4150 38.5240 262° West 477 549 38,000  Level FlightAware
08:44PM 60.3950 38.2510 262° West 475 547 38,000  Level FlightAware
08:44PM 60.3820 38.0840 261° West 475 547 38,000  Level FlightAware
08:45PM 60.3650 37.8530 262° West 38,000  Level FlightAware
08:46PM 60.3450 37.6040 261° West 476 548 38,000  Level FlightAware
08:47PM 60.3200 37.2930 261° West 475 547 38,000  Level FlightAware
08:48PM 60.3040 37.1090 260° West 477 549 38,000  Level FlightAware
08:49PM 60.2910 36.9480 261° West 481 554 38,000  Level FlightAware
08:50PM 60.2730 36.7420 260° West 481 554 38,000  Level FlightAware
08:50PM 60.2590 36.5840 260° West 481 554 38,000  Level FlightAware
08:51PM 60.2430 36.4040 260° West 481 554 38,000  Level FlightAware
08:52PM 60.2160 36.1120 260° West 480 552 38,000  Level FlightAware
08:52PM 60.2000 35.9370 260° West 480 552 38,000  Level FlightAware
08:53PM 60.1830 35.7550 259° West 481 554 38,000  Level FlightAware
08:54PM 60.1660 35.5760 259° West 483 556 38,000  Level FlightAware
08:55PM 60.1430 35.3380 259° West 484 557 38,000  Level FlightAware
08:55PM 60.1280 35.1880 259° West 484 557 38,000  Level FlightAware
08:56PM 60.1060 34.9680 259° West 479 551 38,000  Level FlightAware
08:57PM 60.0880 34.7830 259° West 478 550 38,000  Level FlightAware
08:57PM 60.0710 34.6200 258° West 478 550 38,000  Level FlightAware
08:58PM 60.0500 34.4130 259° West 479 551 38,000  Level FlightAware
08:59PM 60.0320 34.2420 258° West 479 551 38,000  Level FlightAware
09:00PM 60.0110 34.0490 258° West 479 551 38,000  Level FlightAware
09:00PM 59.9900 33.8500 258° West 480 552 38,000  Level FlightAware
09:01PM 59.9630 33.6100 257° West 481 554 38,000  Level FlightAware
09:02PM 59.9420 33.4240 257° West 480 552 38,000  Level FlightAware
09:03PM 59.9220 33.2480 257° West 480 552 38,000  Level FlightAware
09:04PM 59.9070 33.1160 257° West 480 552 38,000  Level FlightAware
09:04PM 59.8860 32.9400 257° West 480 552 38,000  Level FlightAware
09:05PM 59.8710 32.8080 257° West 480 552 38,000  Level FlightAware
09:06PM 59.8330 32.4840 257° West 477 549 38,000  Level FlightAware
09:07PM 59.8030 32.1410 260° West 479 551 38,000  Level FlightAware
09:08PM 59.7890 31.9440 262° West 479 551 38,000  Level FlightAware
09:09PM 59.7750 31.7490 262° West 477 549 38,000  Level FlightAware
09:09PM 59.7630 31.5840 262° West 478 550 38,000  Level FlightAware
09:10PM 59.7540 31.4740 261° West 478 550 38,000  Level FlightAware
09:11PM 59.7290 31.1440 262° West 477 549 38,000  Level FlightAware
09:12PM 59.7130 30.9340 261° West 477 549 38,000  Level FlightAware
09:12PM 59.6970 30.7370 261° West 476 548 38,000  Level FlightAware
09:13PM 59.6830 30.5680 261° West 476 548 38,000  Level FlightAware
09:14PM 59.6690 30.4020 261° West 477 549 38,000  Level FlightAware
09:15PM 59.6520 30.2000 261° West 478 550 38,000  Level FlightAware
09:15PM 59.6360 30.0120 261° West 478 550 38,000  Level FlightAware
09:16PM 59.6210 29.8360 261° West 478 550 38,000  Level FlightAware
09:17PM 59.6060 29.6630 260° West 479 551 38,000  Level FlightAware
09:17PM 59.5910 29.4920 260° West 480 552 38,000  Level FlightAware
09:18PM 59.5730 29.3010 260° West 479 551 38,000  Level FlightAware
09:19PM 59.5550 29.1070 260° West 478 550 38,000  Level FlightAware
09:19PM 59.5390 28.9380 259° West 479 551 38,000  Level FlightAware
09:20PM 59.5230 28.7630 260° West 480 552 38,000  Level FlightAware
09:21PM 59.5040 28.5760 259° West 480 552 38,000  Level FlightAware
09:22PM 59.4870 28.3970 259° West 480 552 38,000  Level FlightAware
09:22PM 59.4680 28.2080 259° West 480 552 38,000  Level FlightAware
09:23PM 59.4460 28.0440 255° West 474 545 38,000  Level FlightAware
09:24PM 59.4130 27.8750 249° West 474 545 38,000  Level FlightAware
09:24PM 59.3820 27.7130 249° West 476 548 38,000  Level FlightAware
09:25PM 59.3480 27.5370 249° West 478 550 38,000  Level FlightAware
09:26PM 59.3270 27.4330 248° West 481 554 38,000  Level FlightAware
09:26PM 59.2900 27.2480 249° West 485 558 38,000  Level FlightAware
09:27PM 59.2560 27.0790 249° West 487 560 38,000  Level FlightAware
09:28PM 59.2240 26.9180 249° West 487 560 38,000  Level FlightAware
09:28PM 59.1870 26.7380 248° West 485 558 38,000  Level FlightAware
09:29PM 59.1510 26.5600 249° West 485 558 38,000  Level FlightAware
09:30PM 59.1150 26.3870 248° West 485 558 38,000  Level FlightAware
09:30PM 59.0800 26.2190 248° West 486 559 38,000  Level FlightAware
09:31PM 59.0480 26.0670 248° West 485 558 38,000  Level FlightAware
09:32PM 59.0080 25.8810 247° West 484 557 38,000  Level FlightAware
09:33PM 58.9740 25.7200 248° West 483 556 38,000  Level FlightAware
09:33PM 58.9350 25.5420 247° West 481 554 38,000  Level FlightAware
09:34PM 58.9020 25.3900 247° West 483 556 38,000  Level FlightAware
09:35PM 58.8660 25.2270 247° West 482 555 38,000  Level FlightAware
09:35PM 58.8260 25.0460 247° West 479 551 38,000  Level FlightAware
09:36PM 58.7920 24.8930 247° West 480 552 38,000  Level FlightAware
09:37PM 58.7540 24.7270 246° West 481 554 38,000  Level FlightAware
09:38PM 58.7150 24.5520 247° West 485 558 38,000  Level FlightAware
09:38PM 58.6790 24.3950 246° West 488 562 38,000  Level FlightAware
09:39PM 58.6410 24.2290 246° West 487 560 38,000  Level FlightAware
09:40PM 58.6030 24.0650 246° West 486 559 38,000  Level FlightAware
09:40PM 58.5650 23.9060 245° Southwest 484 557 38,000  Level FlightAware
09:41PM 58.5250 23.7360 246° West 481 554 38,000  Level FlightAware
09:42PM 58.4850 23.5670 246° West 481 554 38,000  Level FlightAware
09:42PM 58.4500 23.4210 245° Southwest 481 554 38,000  Level FlightAware
09:43PM 58.4110 23.2570 246° West 483 556 38,000  Level FlightAware
09:44PM 58.3700 23.0890 245° Southwest 484 557 38,000  Level FlightAware
09:44PM 58.3340 22.9420 245° Southwest 484 557 38,000  Level FlightAware
09:48PM 58.0996 22.3882 231° Southwest  Level Estimated
09:49PM 58.0234 22.2111 231° Southwest  Level Estimated
09:50PM 57.9470 22.0347 231° Southwest  Level Estimated
09:51PM 57.8704 21.8591 231° Southwest  Level Estimated
09:52PM 57.7936 21.6843 231° Southwest  Level Estimated
09:53PM 57.7165 21.5102 230° Southwest  Level Estimated
09:54PM 57.6391 21.3368 230° Southwest  Level Estimated
09:55PM 57.5616 21.1642 230° Southwest  Level Estimated
09:56PM 57.4837 20.9923 230° Southwest  Level Estimated
09:57PM 57.4057 20.8211 230° Southwest  Level Estimated
09:57PM 57.6590 20.1920 230° Southwest 480 552 38,000  Level FlightAware
09:57PM 57.5690 19.9850 231° Southwest 475 547 38,000  Level FlightAware
09:58PM 57.5080 19.8740 224° Southwest 473 544 38,000  Level FlightAware
09:59PM 57.4400 19.7550 223° Southwest 473 544 38,000 120 Level FlightAware
09:59PM 57.3790 19.6480 223° Southwest 470 541 38,200 60 Climbing FlightAware
10:03PM 57.1255 19.1595 226° Southwest  Level Estimated
10:04PM 57.0415 18.9999 226° Southwest  Level Estimated
10:05PM 56.9574 18.8410 226° Southwest  Level Estimated
10:06PM 56.8730 18.6829 226° Southwest  Level Estimated
10:07PM 56.7884 18.5254 226° Southwest  Level Estimated
10:08PM 56.7036 18.3687 225° Southwest  Level Estimated
10:09PM 56.6186 18.2127 225° Southwest  Level Estimated
10:09PM 56.5120 18.2050 225° Southwest 474 545 39,000  Level FlightAware
10:10PM 56.3940 18.0370 218° Southwest 476 548 39,000  Level FlightAware
10:10PM 56.3130 17.9220 218° Southwest 476 548 39,000  Level FlightAware
10:11PM 56.1980 17.7620 218° Southwest 478 550 39,000  Level FlightAware
10:12PM 56.1220 17.6570 218° Southwest 478 550 39,000  Level FlightAware
10:13PM 56.0560 17.5650 218° Southwest 478 550 39,000  Level FlightAware
10:14PM 55.9740 17.4530 217° Southwest 479 551 39,000  Level FlightAware
10:14PM 55.8950 17.3450 217° Southwest 480 552 39,000  Level FlightAware
10:17PM 55.7048 17.0001 226° Southwest  Level Estimated
10:17PM 55.6450 17.0070 226° Southwest 482 555 39,000  Level FlightAware
10:20PM 55.4394 16.6361 226° Southwest  Level Estimated
10:21PM 55.3546 16.4848 225° Southwest  Level Estimated
10:21PM 55.2190 16.4430 225° Southwest 483 556 39,000  Level FlightAware
10:22PM 55.1130 16.3060 216° Southwest 483 556 39,000  Level FlightAware
10:22PM 55.0390 16.2100 217° Southwest 484 557 39,000  Level FlightAware
10:23PM 54.9690 16.1200 216° Southwest 484 557 39,000  Level FlightAware
10:24PM 54.8960 16.0260 217° Southwest 480 552 39,000  Level FlightAware
10:24PM 54.8060 15.9110 216° Southwest 482 555 39,000  Level FlightAware
10:25PM 54.7350 15.8220 216° Southwest 481 554 39,000  Level FlightAware
10:26PM 54.6600 15.7270 216° Southwest 482 555 39,000  Level FlightAware
10:27PM 54.5610 15.6020 216° Southwest 481 554 39,000  Level FlightAware
10:27PM 54.4850 15.5080 216° Southwest 482 555 39,000  Level FlightAware
10:28PM 54.4030 15.4060 216° Southwest 484 557 39,000  Level FlightAware
10:29PM 54.3210 15.3050 216° Southwest 492 566 39,000  Level FlightAware
10:30PM 54.2270 15.1860 217° Southwest 487 560 39,000  Level FlightAware
10:31PM 54.1120 14.9970 224° Southwest 484 557 39,000  Level FlightAware
10:32PM 54.0390 14.8750 224° Southwest 483 556 39,000  Level FlightAware
10:32PM 53.9820 14.7810 224° Southwest 482 555 39,000  Level FlightAware
10:33PM 53.9090 14.6600 224° Southwest 480 552 39,000  Level FlightAware
10:34PM 53.8360 14.5400 224° Southwest 480 552 39,000  Level FlightAware
10:35PM 53.7540 14.4060 224° Southwest 488 562 39,000  Level FlightAware
10:35PM 53.6900 14.3020 224° Southwest 489 563 39,000  Level FlightAware
10:36PM 53.5760 14.1170 224° Southwest 490 564 39,000  Level FlightAware
10:37PM 53.5040 14.0000 224° Southwest 490 564 39,000  Level FlightAware
10:38PM 53.4290 13.8800 224° Southwest 491 565 39,000  Level FlightAware
10:39PM 53.3550 13.7620 224° Southwest 493 567 39,000  Level FlightAware
10:39PM 53.2950 13.6670 223° Southwest 488 562 39,000  Level FlightAware
10:40PM 53.2220 13.5520 223° Southwest 490 564 39,000  Level FlightAware
10:41PM 53.1480 13.4360 223° Southwest 487 560 39,000  Level FlightAware
10:41PM 53.0900 13.3450 223° Southwest 487 560 39,000  Level FlightAware
10:42PM 53.0240 13.2420 223° Southwest 486 559 39,000  Level FlightAware
10:43PM 52.9190 13.0790 223° Southwest 487 560 39,000  Level FlightAware
10:44PM 52.8510 12.9740 223° Southwest 489 563 39,000  Level FlightAware
10:44PM 52.7830 12.8700 223° Southwest 492 566 39,000  Level FlightAware
10:45PM 52.7080 12.7560 223° Southwest 494 568 39,000  Level FlightAware
10:46PM 52.6470 12.6630 223° Southwest 496 571 39,000  Level FlightAware
10:47PM 52.5720 12.5490 223° Southwest 498 573 39,000  Level FlightAware
10:47PM 52.4950 12.4330 223° Southwest 497 572 39,000  Level FlightAware
10:48PM 52.4290 12.3350 222° Southwest 496 571 39,000  Level FlightAware
10:49PM 52.3570 12.2270 223° Southwest 495 570 39,000  Level FlightAware
10:49PM 52.2850 12.1200 222° Southwest 494 568 39,000  Level FlightAware
10:50PM 52.2110 12.0100 222° Southwest 494 568 39,000  Level FlightAware
10:51PM 52.1440 11.9120 222° Southwest 494 568 39,000  Level FlightAware
10:52PM 52.0690 11.8020 222° Southwest 493 567 39,000  Level FlightAware
10:52PM 52.0000 11.7020 222° Southwest 493 567 39,000  Level FlightAware
10:53PM 51.9340 11.6060 222° Southwest 490 564 39,000 -300 Level FlightAware
10:54PM 51.8570 11.4950 222° Southwest 494 568 38,600 -720 Descending FlightAware
10:54PM 51.7890 11.3960 222° Southwest 492 566 38,000 -1,200 Descending FlightAware
10:55PM 51.7120 11.2870 221° Southwest 490 564 37,000 -1,680 Descending FlightAware
10:56PM 51.6470 11.1930 222° Southwest 489 563 35,700 -2,040 Descending FlightAware
10:56PM 51.5710 11.0860 221° Southwest 483 556 34,200 -2,760 Descending FlightAware
10:57PM 51.5050 10.9910 222° Southwest 491 565 31,900 -3,360 Descending FlightAware
10:58PM 51.4290 10.8850 221° Southwest 501 577 29,500 -2,760 Descending FlightAware
10:58PM 51.3610 10.7890 221° Southwest 486 559 28,100 -2,220 Descending FlightAware
10:59PM 51.2870 10.6870 221° Southwest 477 549 26,400 -2,340 Descending FlightAware
11:00PM 51.2210 10.5950 221° Southwest 468 539 24,900 -2,100 Descending FlightAware
11:01PM 51.1520 10.5000 221° Southwest 453 521 23,600 -2,100 Descending FlightAware
11:01PM 51.0830 10.4040 221° Southwest 446 513 21,900 -2,340 Descending FlightAware
11:02PM 51.0220 10.3200 221° Southwest 442 509 20,400 -1,980 Descending FlightAware
11:03PM 50.9570 10.2310 221° Southwest 423 487 19,200 -1,740 Descending FlightAware
11:03PM 50.9010 10.1540 221° Southwest 411 473 18,100 -1,740 Descending FlightAware
11:04PM 50.8430 10.0760 220° Southwest 401 461 16,800 -1,920 Descending FlightAware
11:05PM 50.7890 10.0020 221° Southwest 394 453 15,500 -1,860 Descending FlightAware
11:05PM 50.7260 9.9170 221° Southwest 378 435 14,300 -1,860 Descending FlightAware
11:06PM 50.6680 9.8400 220° Southwest 366 421 12,800 -2,040 Descending FlightAware
11:07PM 50.6160 9.7700 221° Southwest 360 414 11,500 -1,380 Descending FlightAware
11:08PM 50.5670 9.7050 220° Southwest 342 394 11,000 -420 Descending FlightAware
11:08PM 50.5190 9.6400 221° Southwest 300 345 11,000  Level FlightAware
11:09PM 50.4870 9.5970 221° Southwest 290 334 11,000  Level FlightAware
11:09PM 50.4720 9.5630 235° Southwest 284 327 11,000  Level FlightAware
11:10PM 50.4560 9.5110 244° Southwest 293 337 11,000  Level FlightAware
11:10PM 50.4110 9.4540 219° Southwest 316 364 11,000 -420 Level FlightAware
11:11PM 50.3590 9.3900 218° Southwest 307 353 10,500 -840 Descending FlightAware
11:12PM 50.3060 9.3260 218° Southwest 290 334 9,800 -900 Descending FlightAware
11:12PM 50.2980 9.3160 219° Southwest 289 333 9,700 -1,020 Descending FlightAware
11:12PM 50.2740 9.2870 218° Southwest 285 328 9,200 -1,440 Descending FlightAware
11:13PM 50.2340 9.2370 219° Southwest 282 325 8,300 -1,380 Descending FlightAware
11:13PM 50.2190 9.2170 220° Southwest 279 321 8,100 -1,080 Descending FlightAware
11:14PM 50.1990 9.1790 231° Southwest 273 314 7,600 -1,200 Descending FlightAware
11:14PM 50.1840 9.1210 248° West 271 312 7,000 -1,140 Descending FlightAware
11:14PM 50.1800 9.1010 253° West 271 312 6,800 -1,080 Descending FlightAware
11:15PM 50.1670 9.0480 249° West 266 306 6,300 -1,140 Descending FlightAware
11:15PM 50.1610 9.0200 252° West 263 303 6,000 -1,380 Descending FlightAware
11:16PM 50.1490 8.9690 250° West 261 300 5,300 -1,440 Descending FlightAware
11:16PM 50.1390 8.9280 249° West 258 297 4,800 -1,260 Descending FlightAware
11:16PM 50.1300 8.8870 251° West 262 302 4,200 -1,140 Descending FlightAware
11:17PM 50.1260 8.8720 247° West 262 302 4,100 -600 Descending FlightAware
11:17PM 50.1120 8.8120 250° West 249 287 3,800 -600 Descending FlightAware
11:18PM 50.0990 8.7570 250° West 223 257 3,400 -1,020 Descending FlightAware
11:18PM 50.0890 8.7160 249° West 206 237 2,700 -1,500 Descending FlightAware
11:19PM 50.0830 8.6910 250° West 198 228 2,300 -1,200 Descending FlightAware
11:19PM 50.0750 8.6560 250° West 183 211 1,800 -1,020 Descending FlightAware
11:20PM 50.0660 8.6180 250° West 165 190 1,300 -1,020 Descending FlightAware
11:20PM 50.0570 8.5810 249° West 141 162 700 -840 Descending FlightAware
11:21PM 50.0500 8.5530 249° West 134 154 400 -420 Descending FlightAware
11:21PM 50.0440 8.5220 253° West 132 152 200 -300 Descending FlightAware
11:24PM 50.0264 8.5431 142° Southeast  Level Estimated
11:25PM 50.0264 8.5431 73° East  Level Estimated
11:26PM 50.0264 8.5431 73° East  Level Estimated
11:27PM 50.0264 8.5431 73° East  Level Estimated
11:28PM 50.0264 8.5431 73° East  Level Estimated
11:29PM 50.0264 8.5431 73° East  Level Estimated
11:30PM 50.0264 8.5431 73° East  Level Estimated
11:31PM 50.0264 8.5431 73° East  Level Estimated
11:31PM 50.0430 8.5610 63° Northeast 26 30  Level FlightAware
11:32PM 50.0440 8.5650 69° East 26 30  Level FlightAware